createdAt,value
2017-09-19T13:27:00.678Z,1010.41
2017-09-19T13:28:13.225Z,1010.39
2017-09-19T13:29:25.470Z,1010.39
2017-09-19T13:30:37.693Z,1010.42
2017-09-19T13:31:49.911Z,1010.45
2017-09-19T13:33:02.152Z,1010.44
2017-09-19T13:34:14.681Z,1010.51
2017-09-19T13:35:26.922Z,1010.54
2017-09-19T13:36:38.868Z,1010.56
2017-09-19T13:37:51.645Z,1010.57
2017-09-19T13:39:04.184Z,1010.6
2017-09-19T13:40:16.718Z,1010.6
2017-09-19T13:41:29.279Z,1010.56
2017-09-19T13:42:41.501Z,1010.5
2017-09-19T13:43:53.723Z,1010.55
2017-09-19T13:45:05.338Z,1010.54
2017-09-19T13:46:17.884Z,1010.56
2017-09-19T13:47:30.101Z,1010.59
2017-09-19T13:48:42.628Z,1010.56
2017-09-19T13:49:54.871Z,1010.57
2017-09-19T13:51:06.794Z,1010.59
2017-09-19T13:52:19.029Z,1010.57
2017-09-19T13:53:31.586Z,1010.56
2017-09-19T13:54:43.834Z,1010.58
2017-09-19T13:55:56.402Z,1010.53
2017-09-19T13:57:08.648Z,1010.51
2017-09-19T13:58:21.195Z,1010.49
2017-09-19T13:59:33.755Z,1010.48
2017-09-19T14:00:46.298Z,1010.5
2017-09-19T14:01:57.601Z,1010.51
2017-09-19T14:03:09.848Z,1010.48
2017-09-19T14:04:21.773Z,1010.55
2017-09-19T14:05:33.709Z,1010.51
2017-09-19T14:06:45.935Z,1010.57
2017-09-19T14:07:58.159Z,1010.57
2017-09-19T14:09:10.404Z,1010.53
2017-09-19T14:10:22.329Z,1010.53
2017-09-19T14:11:34.863Z,1010.56
2017-09-19T14:12:47.430Z,1010.59
2017-09-19T14:13:59.975Z,1010.59
2017-09-19T14:15:12.478Z,1010.5
2017-09-19T14:16:24.402Z,1010.54
2017-09-19T14:17:36.024Z,1010.55
2017-09-19T14:18:48.583Z,1010.59
2017-09-19T14:20:00.540Z,1010.59
2017-09-19T14:21:12.761Z,1010.55
2017-09-19T14:22:25.003Z,1010.52
2017-09-19T14:23:37.200Z,1010.5
2017-09-19T14:24:49.447Z,1010.5
2017-09-19T14:26:01.393Z,1010.5
2017-09-19T14:27:13.588Z,1010.48
2017-09-19T14:28:25.808Z,1010.53
2017-09-19T14:29:38.355Z,1010.51
2017-09-19T14:30:50.594Z,1010.53
2017-09-19T14:32:03.149Z,1010.57
2017-09-19T14:33:15.092Z,1010.56
2017-09-19T14:34:27.012Z,1010.55
2017-09-19T14:35:38.008Z,1010.54
2017-09-19T14:36:50.282Z,1010.54
2017-09-19T14:38:02.522Z,1010.49
2017-09-19T14:39:15.084Z,1010.54
2017-09-19T14:40:27.612Z,1010.53
2017-09-19T14:41:39.883Z,1010.53
2017-09-19T14:42:51.808Z,1010.53
2017-09-19T14:44:04.369Z,1010.51
2017-09-19T14:45:16.594Z,1010.52
2017-09-19T14:46:28.493Z,1010.52
2017-09-19T14:47:41.036Z,1010.52
2017-09-19T14:48:53.282Z,1010.54
2017-09-19T14:50:04.920Z,1010.53
2017-09-19T14:51:17.144Z,1010.54
2017-09-19T14:52:29.347Z,1010.54
2017-09-19T14:53:41.889Z,1010.56
2017-09-19T14:54:54.139Z,1010.59
2017-09-19T14:56:06.384Z,1010.61
2017-09-19T14:57:18.926Z,1010.63
2017-09-19T14:58:31.152Z,1010.59
2017-09-19T14:59:43.070Z,1010.66
2017-09-19T15:00:55.313Z,1010.65
2017-09-19T15:02:07.250Z,1010.64
2017-09-19T15:03:19.185Z,1010.62
2017-09-19T15:04:31.744Z,1010.66
2017-09-19T15:05:44.275Z,1010.68
2017-09-19T15:06:56.513Z,1010.62
2017-09-19T15:08:09.063Z,1010.65
2017-09-19T15:09:21.304Z,1010.67
2017-09-19T15:10:33.884Z,1010.68
2017-09-19T15:11:46.451Z,1010.66
2017-09-19T15:12:58.675Z,1010.62
2017-09-19T15:14:10.911Z,1010.63
2017-09-19T15:15:23.178Z,1010.6
2017-09-19T15:16:35.716Z,1010.61
2017-09-19T15:17:47.952Z,1010.63
2017-09-19T15:19:00.156Z,1010.64
2017-09-19T15:20:12.711Z,1010.65
2017-09-19T15:21:24.966Z,1010.69
2017-09-19T15:22:37.188Z,1010.67
2017-09-19T15:23:49.108Z,1010.61
2017-09-19T15:25:01.672Z,1010.62
2017-09-19T15:26:14.202Z,1010.66
2017-09-19T15:27:26.443Z,1010.62
2017-09-19T15:28:38.989Z,1010.65
2017-09-19T15:29:51.533Z,1010.63
2017-09-19T15:31:04.079Z,1010.68
2017-09-19T15:32:16.020Z,1010.64
2017-09-19T15:33:28.263Z,1010.63
2017-09-19T15:34:40.195Z,1010.61
2017-09-19T15:35:52.439Z,1010.62
2017-09-19T15:37:04.664Z,1010.65
2017-09-19T15:38:16.908Z,1010.59
2017-09-19T15:39:28.852Z,1010.67
2017-09-19T15:40:40.798Z,1010.66
2017-09-19T15:41:53.069Z,1010.66
2017-09-19T15:43:05.596Z,1010.66
2017-09-19T15:44:17.807Z,1010.67
2017-09-19T15:45:30.331Z,1010.67
2017-09-19T15:46:41.930Z,1010.65
2017-09-19T15:47:54.178Z,1010.67
2017-09-19T15:49:06.410Z,1010.68
2017-09-19T15:50:18.986Z,1010.71
2017-09-19T15:51:31.534Z,1010.7
2017-09-19T15:52:44.077Z,1010.73
2017-09-19T15:53:56.301Z,1010.73
2017-09-19T15:55:08.540Z,1010.71
2017-09-19T15:56:20.785Z,1010.7
2017-09-19T15:57:33.342Z,1010.71
2017-09-19T15:58:45.279Z,1010.71
2017-09-19T15:59:56.929Z,1010.71
2017-09-19T16:01:08.548Z,1010.7
2017-09-19T16:02:20.466Z,1010.69
2017-09-19T16:03:33.030Z,1010.68
2017-09-19T16:04:45.562Z,1010.72
2017-09-19T16:05:58.106Z,1010.73
2017-09-19T16:07:09.729Z,1010.73
2017-09-19T16:08:21.973Z,1010.74
2017-09-19T16:09:34.515Z,1010.74
2017-09-19T16:10:46.440Z,1010.75
2017-09-19T16:11:58.686Z,1010.78
2017-09-19T16:13:10.609Z,1010.79
2017-09-19T16:14:23.143Z,1010.73
2017-09-19T16:15:35.086Z,1010.78
2017-09-19T16:16:47.622Z,1010.75
2017-09-19T16:17:59.839Z,1010.75
2017-09-19T16:19:12.379Z,1010.8
2017-09-19T16:20:24.868Z,1010.79
2017-09-19T16:21:37.401Z,1010.78
2017-09-19T16:22:49.959Z,1010.78
2017-09-19T16:24:02.212Z,1010.8
2017-09-19T16:25:14.777Z,1010.8
2017-09-19T16:26:27.009Z,1010.8
2017-09-19T16:27:38.926Z,1010.81
2017-09-19T16:28:50.846Z,1010.79
2017-09-19T16:30:03.392Z,1010.83
2017-09-19T16:31:15.316Z,1010.81
2017-09-19T16:32:27.862Z,1010.85
2017-09-19T16:33:39.804Z,1010.84
2017-09-19T16:34:52.380Z,1010.82
2017-09-19T16:36:04.326Z,1010.82
2017-09-19T16:37:16.865Z,1010.81
2017-09-19T16:38:28.836Z,1010.83
2017-09-19T16:39:40.735Z,1010.82
2017-09-19T16:40:52.655Z,1010.82
2017-09-19T16:42:04.902Z,1010.84
2017-09-19T16:43:17.423Z,1010.82
2017-09-19T16:44:29.047Z,1010.86
2017-09-19T16:45:41.289Z,1010.85
2017-09-19T16:46:53.231Z,1010.87
2017-09-19T16:48:05.473Z,1010.9
2017-09-19T16:49:17.739Z,1010.84
2017-09-19T16:50:29.960Z,1010.87
2017-09-19T16:51:42.493Z,1010.83
2017-09-19T16:52:55.038Z,1010.86
2017-09-19T16:54:07.598Z,1010.88
2017-09-19T16:55:20.154Z,1010.91
2017-09-19T16:56:32.072Z,1010.91
2017-09-19T16:57:43.988Z,1010.86
2017-09-19T16:58:55.916Z,1010.9
2017-09-19T17:00:08.167Z,1010.91
2017-09-19T17:01:20.430Z,1010.92
2017-09-19T17:02:32.642Z,1010.94
2017-09-19T17:03:44.895Z,1010.93
2017-09-19T17:04:57.444Z,1010.99
2017-09-19T17:06:09.668Z,1011.02
2017-09-19T17:07:21.907Z,1011.01
2017-09-19T17:08:34.455Z,1011.03
2017-09-19T17:09:46.999Z,1011.08
2017-09-19T17:10:59.239Z,1011.08
2017-09-19T17:12:11.490Z,1011.06
2017-09-19T17:13:23.709Z,1011.07
2017-09-19T17:14:35.027Z,1011.1
2017-09-19T17:15:47.280Z,1011.1
2017-09-19T17:16:59.194Z,1011.13
2017-09-19T17:18:11.747Z,1011.14
2017-09-19T17:19:24.009Z,1011.17
2017-09-19T17:20:36.613Z,1011.18
2017-09-19T17:21:48.230Z,1011.18
2017-09-19T17:23:00.450Z,1011.2
2017-09-19T17:24:12.663Z,1011.21
2017-09-19T17:25:23.972Z,1011.18
2017-09-19T17:26:36.209Z,1011.22
2017-09-19T17:27:48.763Z,1011.19
2017-09-19T17:29:00.657Z,1011.17
2017-09-19T17:30:12.584Z,1011.18
2017-09-19T17:31:24.813Z,1011.26
2017-09-19T17:32:37.020Z,1011.24
2017-09-19T17:33:49.244Z,1011.25
2017-09-19T17:35:01.456Z,1011.32
2017-09-19T17:36:13.099Z,1011.34
2017-09-19T17:37:25.354Z,1011.35
2017-09-19T17:38:37.290Z,1011.36
2017-09-19T17:39:49.560Z,1011.37
2017-09-19T17:41:01.788Z,1011.4
2017-09-19T17:42:13.074Z,1011.4
2017-09-19T17:43:25.603Z,1011.39
2017-09-19T17:44:38.130Z,1011.41
2017-09-19T17:45:50.686Z,1011.37
2017-09-19T17:47:02.885Z,1011.32
2017-09-19T17:48:15.101Z,1011.41
2017-09-19T17:49:27.633Z,1011.4
2017-09-19T17:50:39.257Z,1011.43
2017-09-19T17:51:51.475Z,1011.41
2017-09-19T17:53:03.412Z,1011.44
2017-09-19T17:54:15.656Z,1011.44
2017-09-19T17:55:27.901Z,1011.46
2017-09-19T17:56:40.421Z,1011.45
2017-09-19T17:57:53.220Z,1011.48
2017-09-19T17:59:05.746Z,1011.51
2017-09-19T18:00:17.366Z,1011.49
2017-09-19T18:01:29.612Z,1011.46
2017-09-19T18:02:42.156Z,1011.46
2017-09-19T18:03:54.378Z,1011.45
2017-09-19T18:05:06.899Z,1011.5
2017-09-19T18:06:19.440Z,1011.51
2017-09-19T18:07:31.693Z,1011.51
2017-09-19T18:08:43.935Z,1011.54
2017-09-19T18:09:56.483Z,1011.54
2017-09-19T18:11:09.022Z,1011.59
2017-09-19T18:12:21.273Z,1011.55
2017-09-19T18:13:33.193Z,1011.6
2017-09-19T18:14:45.430Z,1011.59
2017-09-19T18:15:57.695Z,1011.61
2017-09-19T18:17:10.249Z,1011.62
2017-09-19T18:18:22.480Z,1011.65
2017-09-19T18:19:35.274Z,1011.65
2017-09-19T18:20:47.191Z,1011.71
2017-09-19T18:21:59.740Z,1011.68
2017-09-19T18:23:12.000Z,1011.71
2017-09-19T18:24:24.222Z,1011.72
2017-09-19T18:25:36.778Z,1011.77
2017-09-19T18:26:49.323Z,1011.78
2017-09-19T18:28:01.257Z,1011.77
2017-09-19T18:29:12.256Z,1011.75
2017-09-19T18:30:24.488Z,1011.78
2017-09-19T18:31:36.724Z,1011.75
2017-09-19T18:32:48.349Z,1011.8
2017-09-19T18:34:00.593Z,1011.76
2017-09-19T18:35:13.141Z,1011.82
2017-09-19T18:36:25.714Z,1011.81
2017-09-19T18:37:37.984Z,1011.8
2017-09-19T18:38:49.908Z,1011.82
2017-09-19T18:40:01.865Z,1011.85
2017-09-19T18:41:14.097Z,1011.82
2017-09-19T18:42:26.634Z,1011.87
2017-09-19T18:43:38.890Z,1011.87
2017-09-19T18:44:50.509Z,1011.9
2017-09-19T18:46:03.056Z,1011.89
2017-09-19T18:47:15.625Z,1011.87
2017-09-19T18:48:28.166Z,1011.87
2017-09-19T18:49:40.704Z,1011.86
2017-09-19T18:50:52.932Z,1011.87
2017-09-19T18:52:05.471Z,1011.87
2017-09-19T18:53:17.707Z,1011.82
2017-09-19T18:54:29.623Z,1011.81
2017-09-19T18:55:41.865Z,1011.8
2017-09-19T18:56:53.804Z,1011.8
2017-09-19T18:58:06.328Z,1011.8
2017-09-19T18:59:18.549Z,1011.8
2017-09-19T19:00:30.177Z,1011.81
2017-09-19T19:01:42.398Z,1011.8
2017-09-19T19:02:54.315Z,1011.8
2017-09-19T19:04:06.242Z,1011.78
2017-09-19T19:05:17.835Z,1011.78
2017-09-19T19:06:30.060Z,1011.82
2017-09-19T19:07:42.619Z,1011.85
2017-09-19T19:08:55.147Z,1011.85
2017-09-19T19:10:07.710Z,1011.8
2017-09-19T19:11:20.266Z,1011.85
2017-09-19T19:12:32.504Z,1011.82
2017-09-19T19:13:44.433Z,1011.87
2017-09-19T19:14:56.349Z,1011.87
2017-09-19T19:16:08.245Z,1011.86
2017-09-19T19:17:20.490Z,1011.86
2017-09-19T19:18:33.012Z,1011.85
2017-09-19T19:19:45.274Z,1011.85
2017-09-19T19:20:57.200Z,1011.84
2017-09-19T19:22:09.444Z,1011.85
2017-09-19T19:23:21.720Z,1011.8
2017-09-19T19:24:33.924Z,1011.84
2017-09-19T19:25:46.191Z,1011.84
2017-09-19T19:26:58.403Z,1011.85
2017-09-19T19:28:10.641Z,1011.79
2017-09-19T19:29:22.865Z,1011.83
2017-09-19T19:30:35.414Z,1011.84
2017-09-19T19:31:47.635Z,1011.83
2017-09-19T19:32:59.532Z,1011.84
2017-09-19T19:34:12.080Z,1011.87
2017-09-19T19:35:24.004Z,1011.89
2017-09-19T19:36:36.246Z,1011.89
2017-09-19T19:37:48.809Z,1011.91
2017-09-19T19:39:00.734Z,1011.92
2017-09-19T19:40:12.334Z,1011.93
2017-09-19T19:41:24.879Z,1011.93
2017-09-19T19:42:37.425Z,1011.89
2017-09-19T19:43:49.991Z,1011.91
2017-09-19T19:45:02.233Z,1011.88
2017-09-19T19:46:13.884Z,1011.9
2017-09-19T19:47:25.808Z,1011.91
2017-09-19T19:48:38.004Z,1011.9
2017-09-19T19:49:50.224Z,1011.94
2017-09-19T19:51:02.445Z,1011.93
2017-09-19T19:52:15.015Z,1011.91
2017-09-19T19:53:27.575Z,1011.94
2017-09-19T19:54:40.095Z,1011.96
2017-09-19T19:55:52.602Z,1011.97
2017-09-19T19:57:04.850Z,1011.97
2017-09-19T19:58:17.057Z,1012
2017-09-19T19:59:29.290Z,1011.98
2017-09-19T20:00:41.836Z,1011.97
2017-09-19T20:01:54.055Z,1011.97
2017-09-19T20:03:06.294Z,1011.97
2017-09-19T20:04:18.239Z,1011.96
2017-09-19T20:05:30.489Z,1011.98
2017-09-19T20:06:43.038Z,1011.99
2017-09-19T20:07:55.259Z,1012.02
2017-09-19T20:09:07.203Z,1011.96
2017-09-19T20:10:19.492Z,1012.02
2017-09-19T20:11:31.409Z,1012.01
2017-09-19T20:12:43.966Z,1012.03
2017-09-19T20:13:56.185Z,1012.08
2017-09-19T20:15:08.696Z,1012.08
2017-09-19T20:16:21.230Z,1012.08
2017-09-19T20:17:33.799Z,1012.12
2017-09-19T20:18:46.366Z,1012.11
2017-09-19T20:19:58.929Z,1012.13
2017-09-19T20:21:10.856Z,1012.13
2017-09-19T20:22:23.094Z,1012.12
2017-09-19T20:23:35.630Z,1012.11
2017-09-19T20:24:48.194Z,1012.13
2017-09-19T20:26:00.718Z,1012.1
2017-09-19T20:27:13.264Z,1012.1
2017-09-19T20:28:25.834Z,1012.1
2017-09-19T20:29:38.068Z,1012.1
2017-09-19T20:30:50.276Z,1012.11
2017-09-19T20:32:02.818Z,1012.1
2017-09-19T20:33:15.056Z,1012.1
2017-09-19T20:34:26.965Z,1012.09
2017-09-19T20:35:39.209Z,1012.15
2017-09-19T20:36:51.450Z,1012.14
2017-09-19T20:38:03.702Z,1012.08
2017-09-19T20:39:15.945Z,1012.06
2017-09-19T20:40:28.143Z,1012.12
2017-09-19T20:41:40.686Z,1012.1
2017-09-19T20:42:52.607Z,1012.08
2017-09-19T20:44:05.178Z,1012.08
2017-09-19T20:45:17.413Z,1012.09
2017-09-19T20:46:29.315Z,1012.07
2017-09-19T20:47:41.586Z,1012.08
2017-09-19T20:48:53.832Z,1012.1
2017-09-19T20:50:06.331Z,1012.09
2017-09-19T20:51:17.940Z,1012.09
2017-09-19T20:52:30.165Z,1012.12
2017-09-19T20:53:42.693Z,1012.13
2017-09-19T20:54:54.927Z,1012.11
2017-09-19T20:56:07.150Z,1012.12
2017-09-19T20:57:19.076Z,1012.16
2017-09-19T20:58:31.639Z,1012.13
2017-09-19T20:59:43.893Z,1012.14
2017-09-19T21:00:56.117Z,1012.15
2017-09-19T21:02:08.358Z,1012.13
2017-09-19T21:03:20.583Z,1012.17
2017-09-19T21:04:33.126Z,1012.17
2017-09-19T21:05:45.648Z,1012.16
2017-09-19T21:06:57.574Z,1012.14
2017-09-19T21:08:09.811Z,1012.16
2017-09-19T21:09:21.739Z,1012.12
2017-09-19T21:10:33.975Z,1012.14
2017-09-19T21:11:45.879Z,1012.14
2017-09-19T21:12:58.129Z,1012.14
2017-09-19T21:14:10.669Z,1012.15
2017-09-19T21:15:23.210Z,1012.14
2017-09-19T21:16:35.759Z,1012.12
2017-09-19T21:17:48.305Z,1012.08
2017-09-19T21:19:00.245Z,1012.07
2017-09-19T21:20:12.493Z,1012.06
2017-09-19T21:21:25.042Z,1012.07
2017-09-19T21:22:37.584Z,1012.01
2017-09-19T21:23:49.811Z,1012.03
2017-09-19T21:25:02.071Z,1012
2017-09-19T21:26:14.301Z,1012
2017-09-19T21:27:26.235Z,1012.03
2017-09-19T21:28:38.764Z,1012.04
2017-09-19T21:29:51.309Z,1012.04
2017-09-19T21:31:03.558Z,1012.05
2017-09-19T21:32:16.099Z,1012.07
2017-09-19T21:33:28.321Z,1012.1
2017-09-19T21:34:40.791Z,1012.08
2017-09-19T21:35:53.037Z,1012.08
2017-09-19T21:37:05.534Z,1012.11
2017-09-19T21:38:17.752Z,1012.1
2017-09-19T21:39:29.973Z,1012.09
2017-09-19T21:40:42.199Z,1012.1
2017-09-19T21:41:53.818Z,1012.08
2017-09-19T21:43:05.735Z,1012.06
2017-09-19T21:44:17.932Z,1012.13
2017-09-19T21:45:30.402Z,1012.1
2017-09-19T21:46:42.941Z,1012.11
2017-09-19T21:47:55.472Z,1012.11
2017-09-19T21:49:08.006Z,1012.12
2017-09-19T21:50:20.552Z,1012.14
2017-09-19T21:51:32.783Z,1012.16
2017-09-19T21:52:45.354Z,1012.12
2017-09-19T21:53:57.893Z,1012.18
2017-09-19T21:55:09.510Z,1012.18
2017-09-19T21:56:22.019Z,1012.14
2017-09-19T21:57:34.251Z,1012.16
2017-09-19T21:58:46.479Z,1012.13
2017-09-19T21:59:58.678Z,1012.11
2017-09-19T22:01:10.926Z,1012.08
2017-09-19T22:02:23.167Z,1012.12
2017-09-19T22:03:35.691Z,1012.08
2017-09-19T22:04:47.626Z,1012.11
2017-09-19T22:05:59.832Z,1012.08
2017-09-19T22:07:12.049Z,1012.1
2017-09-19T22:08:24.265Z,1012.07
2017-09-19T22:09:36.515Z,1012.05
2017-09-19T22:10:49.090Z,1012.07
2017-09-19T22:12:01.325Z,1012.07
2017-09-19T22:13:13.548Z,1012.11
2017-09-19T22:14:24.843Z,1012.09
2017-09-19T22:15:37.370Z,1012.05
2017-09-19T22:16:49.919Z,1012.09
2017-09-19T22:18:02.152Z,1012.04
2017-09-19T22:19:14.709Z,1012.05
2017-09-19T22:20:26.626Z,1012.02
2017-09-19T22:21:39.173Z,1012.04
2017-09-19T22:22:51.712Z,1012.03
2017-09-19T22:24:03.319Z,1012.04
2017-09-19T22:25:15.241Z,1012.03
2017-09-19T22:26:27.476Z,1012.01
2017-09-19T22:27:39.699Z,1012.03
2017-09-19T22:28:52.220Z,1012.02
2017-09-19T22:30:04.459Z,1012.03
2017-09-19T22:31:16.968Z,1012.01
2017-09-19T22:32:29.506Z,1011.98
2017-09-19T22:33:41.428Z,1012.02
2017-09-19T22:34:53.954Z,1012.01
2017-09-19T22:36:06.498Z,1012.02
2017-09-19T22:37:18.414Z,1012
2017-09-19T22:38:30.936Z,1012.04
2017-09-19T22:39:43.702Z,1012
2017-09-19T22:40:55.631Z,1012.02
2017-09-19T22:42:07.549Z,1012
2017-09-19T22:43:19.764Z,1011.97
2017-09-19T22:44:31.968Z,1011.97
2017-09-19T22:45:44.513Z,1011.98
2017-09-19T22:46:56.132Z,1011.93
2017-09-19T22:48:08.352Z,1011.97
2017-09-19T22:49:20.926Z,1011.96
2017-09-19T22:50:33.164Z,1012.01
2017-09-19T22:51:45.409Z,1011.94
2017-09-19T22:52:56.734Z,1011.97
2017-09-19T22:54:08.958Z,1011.98
2017-09-19T22:55:21.495Z,1012
2017-09-19T22:56:34.055Z,1011.95
2017-09-19T22:57:46.612Z,1011.94
2017-09-19T22:58:57.904Z,1011.97
2017-09-19T23:00:09.533Z,1011.97
2017-09-19T23:01:22.083Z,1011.95
2017-09-19T23:02:34.599Z,1011.95
2017-09-19T23:03:46.848Z,1011.96
2017-09-19T23:04:59.072Z,1011.97
2017-09-19T23:06:10.989Z,1011.95
2017-09-19T23:07:23.524Z,1011.91
2017-09-19T23:08:35.736Z,1011.94
2017-09-19T23:09:47.979Z,1011.93
2017-09-19T23:11:00.522Z,1011.91
2017-09-19T23:12:12.993Z,1011.95
2017-09-19T23:13:25.562Z,1011.94
2017-09-19T23:14:38.106Z,1011.95
2017-09-19T23:15:50.352Z,1011.95
2017-09-19T23:17:02.275Z,1011.97
2017-09-19T23:18:14.488Z,1011.94
2017-09-19T23:19:27.013Z,1011.95
2017-09-19T23:20:39.537Z,1012.01
2017-09-19T23:21:51.755Z,1011.94
2017-09-19T23:23:03.970Z,1011.98
2017-09-19T23:24:15.877Z,1012.01
2017-09-19T23:25:28.094Z,1011.94
2017-09-19T23:26:40.379Z,1011.94
2017-09-19T23:27:52.603Z,1011.97
2017-09-19T23:29:04.859Z,1011.99
2017-09-19T23:30:17.377Z,1012.02
2017-09-19T23:31:29.612Z,1012
2017-09-19T23:32:41.862Z,1012.06
2017-09-19T23:33:54.107Z,1012.05
2017-09-19T23:35:05.727Z,1012.04
2017-09-19T23:36:17.953Z,1012.03
2017-09-19T23:37:29.891Z,1012.06
2017-09-19T23:38:42.421Z,1012.04
2017-09-19T23:39:54.894Z,1012.04
2017-09-19T23:41:06.827Z,1012.06
2017-09-19T23:42:19.334Z,1012.03
2017-09-19T23:43:31.857Z,1012.03
2017-09-19T23:44:44.103Z,1012.06
2017-09-19T23:45:56.321Z,1012.02
2017-09-19T23:47:08.245Z,1012.03
2017-09-19T23:48:20.792Z,1012.05
2017-09-19T23:49:32.708Z,1012.07
2017-09-19T23:50:44.646Z,1012.07
2017-09-19T23:51:56.874Z,1012.08
2017-09-19T23:53:08.770Z,1012.03
2017-09-19T23:54:20.983Z,1012.04
2017-09-19T23:55:33.508Z,1012
2017-09-19T23:56:45.445Z,1011.99
2017-09-19T23:57:57.649Z,1011.95
2017-09-19T23:59:10.201Z,1012
